createdAt,value
2022-11-01T00:02:03.330Z,44.27
2022-11-01T00:04:31.583Z,39.03
2022-11-01T00:06:59.721Z,38.40
2022-11-01T00:09:27.889Z,35.70
2022-11-01T00:11:56.122Z,35.77
2022-11-01T00:14:24.511Z,38.03
2022-11-01T00:16:54.039Z,37.73
2022-11-01T00:19:22.219Z,47.10
2022-11-01T00:21:50.458Z,46.33
2022-11-01T00:24:18.631Z,46.73
2022-11-01T00:26:46.785Z,46.17
2022-11-01T00:29:15.125Z,45.87
2022-11-01T00:31:43.459Z,47.50
2022-11-01T00:34:13.061Z,49.60
2022-11-01T00:36:41.229Z,43.70
2022-11-01T00:39:13.498Z,46.13
2022-11-01T00:41:41.692Z,46.63
2022-11-01T00:44:09.889Z,40.57
2022-11-01T00:46:38.005Z,41.40
2022-11-01T00:49:06.359Z,40.53
2022-11-01T00:51:35.991Z,40.87
2022-11-01T00:54:04.250Z,42.40
2022-11-01T00:56:32.417Z,42.70
2022-11-01T00:59:00.590Z,40.50
2022-11-01T01:01:29.044Z,42.97
2022-11-01T01:03:57.299Z,41.27
2022-11-01T01:06:25.450Z,40.07
2022-11-01T01:08:54.982Z,40.37
2022-11-01T01:11:23.196Z,36.87
2022-11-01T01:13:51.408Z,41.40
2022-11-01T01:16:19.612Z,40.73
2022-11-01T01:18:47.795Z,37.50
2022-11-01T01:21:17.470Z,38.07
2022-11-01T01:23:46.821Z,37.83
2022-11-01T01:26:16.379Z,35.07
2022-11-01T01:28:45.053Z,36.33
2022-11-01T01:31:14.559Z,35.43
2022-11-01T01:33:42.738Z,37.37
2022-11-01T01:36:11.078Z,36.47
2022-11-01T01:38:39.435Z,31.60
2022-11-01T01:41:24.574Z,30.77
2022-11-01T01:43:54.246Z,28.27
2022-11-01T01:46:22.541Z,28.33
2022-11-01T01:48:54.652Z,28.03
2022-11-01T01:51:27.388Z,27.80
2022-11-01T01:53:58.172Z,27.60
2022-11-01T01:56:31.250Z,29.80
2022-11-01T01:59:05.176Z,29.57
2022-11-01T02:01:35.154Z,30.17
2022-11-01T02:04:04.538Z,31.30
2022-11-01T02:06:34.521Z,31.27
2022-11-01T02:09:06.217Z,32.43
2022-11-01T02:11:34.395Z,32.57
2022-11-01T02:14:04.391Z,31.30
2022-11-01T02:16:50.856Z,32.13
2022-11-01T02:19:47.721Z,30.60
2022-11-01T02:22:20.092Z,29.20
2022-11-01T02:25:10.909Z,27.73
2022-11-01T02:28:01.063Z,26.27
2022-11-01T02:30:39.993Z,25.57
2022-11-01T02:33:16.097Z,26.50
2022-11-01T02:35:53.366Z,25.50
2022-11-01T02:38:27.278Z,24.80
2022-11-01T02:41:03.150Z,26.00
2022-11-01T02:43:36.238Z,24.80
2022-11-01T02:46:21.165Z,24.93
2022-11-01T02:48:51.548Z,24.10
2022-11-01T02:51:22.755Z,24.37
2022-11-01T02:53:50.964Z,23.50
2022-11-01T02:56:20.016Z,21.53
2022-11-01T02:58:50.048Z,21.20
2022-11-01T03:01:24.532Z,19.93
2022-11-01T03:03:57.208Z,19.37
2022-11-01T03:06:32.109Z,18.77
2022-11-01T03:09:03.647Z,18.23
2022-11-01T03:11:37.627Z,18.97
2022-11-01T03:14:14.220Z,18.07
2022-11-01T03:16:50.523Z,18.57
2022-11-01T03:19:35.252Z,18.17
2022-11-01T03:22:09.669Z,17.50
2022-11-01T03:24:45.724Z,17.20
2022-11-01T03:27:18.071Z,17.60
2022-11-01T03:29:49.600Z,17.63
2022-11-01T03:32:20.519Z,17.40
2022-11-01T03:34:50.153Z,18.20
2022-11-01T03:37:20.168Z,18.87
2022-11-01T03:39:51.832Z,18.63
2022-11-01T03:42:22.605Z,18.20
2022-11-01T03:44:55.278Z,18.73
2022-11-01T03:47:23.998Z,18.17
2022-11-01T03:50:18.418Z,18.93
2022-11-01T03:52:47.178Z,19.43
2022-11-01T03:55:19.278Z,19.90
2022-11-01T03:57:48.383Z,19.33
2022-11-01T04:00:18.426Z,18.27
2022-11-01T04:02:47.170Z,18.33
2022-11-01T04:05:17.030Z,17.63
2022-11-01T04:07:45.288Z,20.87
2022-11-01T04:10:14.015Z,20.40
2022-11-01T04:12:45.499Z,19.60
2022-11-01T04:15:31.847Z,19.70
2022-11-01T04:18:25.477Z,18.20
2022-11-01T04:20:55.221Z,18.00
2022-11-01T04:23:23.424Z,17.27
2022-11-01T04:25:51.667Z,17.27
2022-11-01T04:28:19.928Z,16.17
2022-11-01T04:30:48.087Z,17.03
2022-11-01T04:33:16.559Z,16.20
2022-11-01T04:35:48.778Z,15.60
2022-11-01T04:38:18.383Z,16.33
2022-11-01T04:40:46.598Z,15.73
2022-11-01T04:43:15.143Z,15.10
2022-11-01T04:45:43.354Z,15.67
2022-11-01T04:48:13.866Z,16.27
2022-11-01T04:50:42.625Z,16.13
2022-11-01T04:53:11.349Z,15.03
2022-11-01T04:55:41.296Z,15.77
2022-11-01T04:58:10.840Z,16.10
2022-11-01T05:00:39.722Z,14.93
2022-11-01T05:03:09.274Z,16.47
2022-11-01T05:05:39.016Z,15.57
2022-11-01T05:08:09.426Z,15.73
2022-11-01T05:10:39.264Z,15.97
2022-11-01T05:13:09.348Z,16.07
2022-11-01T05:15:40.063Z,16.13
2022-11-01T05:18:12.036Z,15.60
2022-11-01T05:20:40.294Z,14.67
2022-11-01T05:23:08.551Z,15.33
2022-11-01T05:25:38.223Z,15.67
2022-11-01T05:28:10.041Z,15.53
2022-11-01T05:30:38.980Z,15.77
2022-11-01T05:33:08.373Z,15.13
2022-11-01T05:35:37.565Z,15.77
2022-11-01T05:38:06.160Z,15.20
2022-11-01T05:40:34.534Z,14.97
2022-11-01T05:43:03.233Z,14.47
2022-11-01T05:45:33.196Z,15.63
2022-11-01T05:48:04.202Z,16.43
2022-11-01T05:50:32.846Z,16.43
2022-11-01T05:53:08.821Z,16.90
2022-11-01T05:55:37.761Z,16.73
2022-11-01T05:58:06.245Z,16.37
2022-11-01T06:00:36.903Z,17.17
2022-11-01T06:03:06.112Z,17.60
2022-11-01T06:05:35.132Z,16.87
2022-11-01T06:08:04.228Z,16.00
2022-11-01T06:10:33.294Z,16.90
2022-11-01T06:13:01.920Z,16.33
2022-11-01T06:15:33.152Z,16.40
2022-11-01T06:18:06.086Z,16.13
2022-11-01T06:20:36.748Z,16.10
2022-11-01T06:23:10.458Z,16.00
2022-11-01T06:25:38.879Z,16.17
2022-11-01T06:28:07.048Z,16.63
2022-11-01T06:30:35.192Z,16.73
2022-11-01T06:33:03.963Z,16.50
2022-11-01T06:35:33.772Z,16.30
2022-11-01T06:38:03.586Z,15.30
2022-11-01T06:40:32.488Z,15.50
2022-11-01T06:43:02.759Z,15.93
2022-11-01T06:45:31.105Z,14.87
2022-11-01T06:47:59.775Z,14.60
2022-11-01T06:50:28.805Z,13.57
2022-11-01T06:52:59.154Z,13.77
2022-11-01T06:55:27.888Z,14.03
2022-11-01T06:57:57.306Z,14.40
2022-11-01T07:00:26.104Z,14.33
2022-11-01T07:03:00.048Z,13.47
2022-11-01T07:05:30.384Z,13.77
2022-11-01T07:08:05.689Z,14.40
2022-11-01T07:10:34.554Z,14.27
2022-11-01T07:13:03.971Z,13.57
2022-11-01T07:15:33.339Z,13.20
2022-11-01T07:18:04.249Z,13.90
2022-11-01T07:20:36.381Z,12.97
2022-11-01T07:23:07.120Z,13.70
2022-11-01T07:25:35.556Z,13.47
2022-11-01T07:28:03.911Z,12.93
2022-11-01T07:30:32.081Z,13.90
2022-11-01T07:33:02.252Z,13.43
2022-11-01T07:35:31.227Z,13.43
2022-11-01T07:38:01.075Z,13.30
2022-11-01T07:40:32.372Z,13.37
2022-11-01T07:43:02.137Z,12.87
2022-11-01T07:45:33.423Z,12.87
2022-11-01T07:48:03.110Z,12.73
2022-11-01T07:50:32.067Z,12.67
2022-11-01T07:53:01.299Z,13.90
2022-11-01T07:55:29.745Z,11.83
2022-11-01T07:57:59.490Z,13.40
2022-11-01T08:00:28.290Z,12.50
2022-11-01T08:03:02.470Z,12.20
2022-11-01T08:05:31.153Z,12.03
2022-11-01T08:08:00.557Z,11.13
2022-11-01T08:10:29.690Z,11.70
2022-11-01T08:13:15.103Z,11.57
2022-11-01T08:15:43.531Z,11.53
2022-11-01T08:18:11.787Z,11.53
2022-11-01T08:20:40.919Z,11.40
2022-11-01T08:23:09.793Z,10.70
2022-11-01T08:25:38.422Z,10.77
2022-11-01T08:28:10.684Z,10.38
2022-11-01T08:30:40.224Z,10.65
2022-11-01T08:33:08.566Z,10.90
2022-11-01T08:35:37.231Z,10.38
2022-11-01T08:38:05.983Z,10.77
2022-11-01T08:40:35.107Z,11.00
2022-11-01T08:43:03.545Z,10.50
2022-11-01T08:45:33.309Z,10.48
2022-11-01T08:48:03.351Z,10.98
2022-11-01T08:50:33.063Z,10.32
2022-11-01T08:53:05.869Z,10.65
2022-11-01T08:55:37.681Z,10.02
2022-11-01T08:58:07.081Z,9.15
2022-11-01T09:00:37.298Z,9.05
2022-11-01T09:03:05.895Z,8.63
2022-11-01T09:05:34.444Z,8.77
2022-11-01T09:08:03.350Z,8.52
2022-11-01T09:10:32.291Z,8.35
2022-11-01T09:13:01.150Z,8.55
2022-11-01T09:15:29.861Z,8.43
2022-11-01T09:17:59.714Z,8.45
2022-11-01T09:20:28.642Z,8.45
2022-11-01T09:22:57.178Z,8.20
2022-11-01T09:25:25.393Z,8.75
2022-11-01T09:27:54.174Z,8.30
2022-11-01T09:30:22.502Z,8.27
2022-11-01T09:32:51.048Z,8.07
2022-11-01T09:35:20.682Z,7.47
2022-11-01T09:37:48.887Z,6.65
2022-11-01T09:40:19.096Z,7.30
2022-11-01T09:42:47.852Z,7.68
2022-11-01T09:45:19.942Z,6.82
2022-11-01T09:47:51.389Z,6.22
2022-11-01T09:50:26.310Z,6.32
2022-11-01T09:52:56.314Z,6.28
2022-11-01T09:55:35.240Z,6.38
2022-11-01T09:58:10.153Z,5.32
2022-11-01T10:00:49.499Z,6.50
2022-11-01T10:03:33.810Z,6.88
2022-11-01T10:06:13.541Z,6.13
2022-11-01T10:08:55.464Z,5.80
2022-11-01T10:11:44.698Z,5.45
2022-11-01T10:14:27.934Z,5.32
2022-11-01T10:17:08.466Z,4.97
2022-11-01T10:19:37.560Z,5.68
2022-11-01T10:22:13.651Z,4.50
2022-11-01T10:24:47.367Z,5.05
2022-11-01T10:27:23.385Z,5.15
2022-11-01T10:29:59.339Z,5.20
2022-11-01T10:32:34.123Z,4.53
2022-11-01T10:35:06.212Z,4.75
2022-11-01T10:37:47.299Z,4.80
2022-11-01T10:40:30.123Z,4.43
2022-11-01T10:42:59.369Z,4.50
2022-11-01T10:45:27.918Z,4.38
2022-11-01T10:47:58.665Z,4.18
2022-11-01T10:50:30.008Z,4.07
2022-11-01T10:53:03.153Z,4.15
2022-11-01T10:55:50.451Z,4.22
2022-11-01T10:58:34.119Z,4.30
2022-11-01T11:01:04.353Z,4.15
2022-11-01T11:03:33.239Z,4.18
2022-11-01T11:06:05.868Z,3.83
2022-11-01T11:08:36.421Z,3.90
2022-11-01T11:11:10.927Z,4.20
2022-11-01T11:13:43.017Z,4.18
2022-11-01T11:16:19.672Z,4.10
2022-11-01T11:19:02.348Z,3.53
2022-11-01T11:21:35.150Z,3.47
2022-11-01T11:24:05.204Z,3.90
2022-11-01T11:26:39.441Z,3.90
2022-11-01T11:29:07.863Z,3.90
2022-11-01T11:31:36.265Z,3.72
2022-11-01T11:34:23.502Z,3.78
2022-11-01T11:36:53.754Z,3.70
2022-11-01T11:39:28.129Z,3.95
2022-11-01T11:42:10.683Z,3.85
2022-11-01T11:44:44.438Z,3.70
2022-11-01T11:47:21.235Z,3.80
2022-11-01T11:49:50.159Z,4.15
2022-11-01T11:52:23.311Z,3.25
2022-11-01T11:54:55.096Z,3.75
2022-11-01T11:57:26.787Z,3.00
2022-11-01T11:59:57.756Z,3.33
2022-11-01T12:02:29.261Z,3.22
2022-11-01T12:05:01.520Z,3.00
2022-11-01T12:07:32.251Z,3.13
2022-11-01T12:10:05.737Z,2.78
2022-11-01T12:12:35.908Z,1.75
2022-11-01T12:15:04.360Z,1.63
2022-11-01T12:17:35.256Z,1.98
2022-11-01T12:20:11.033Z,1.70
2022-11-01T12:22:42.639Z,1.40
2022-11-01T12:25:17.399Z,1.80
2022-11-01T12:27:57.500Z,1.63
2022-11-01T12:30:26.935Z,1.70
2022-11-01T12:32:57.665Z,1.50
2022-11-01T12:35:30.452Z,1.80
2022-11-01T12:38:29.723Z,1.70
2022-11-01T12:41:03.618Z,1.70
2022-11-01T12:43:44.426Z,1.60
2022-11-01T12:46:17.143Z,1.73
2022-11-01T12:48:51.296Z,1.60
2022-11-01T12:51:23.989Z,1.85
2022-11-01T12:53:59.375Z,1.70
2022-11-01T12:56:28.958Z,1.80
2022-11-01T12:58:58.083Z,1.80
2022-11-01T13:01:36.338Z,1.80
2022-11-01T13:04:16.901Z,3.72
2022-11-01T13:07:03.785Z,2.13
2022-11-01T13:09:42.280Z,1.67
2022-11-01T13:12:17.674Z,1.77
2022-11-01T13:14:58.185Z,1.80
2022-11-01T13:17:34.687Z,1.70
2022-11-01T13:20:19.306Z,1.63
2022-11-01T13:22:54.116Z,1.95
2022-11-01T13:25:28.384Z,1.80
2022-11-01T13:28:05.492Z,1.90
2022-11-01T13:30:40.294Z,2.17
2022-11-01T13:33:17.646Z,1.70
2022-11-01T13:35:53.624Z,1.80
2022-11-01T13:38:29.918Z,1.77
2022-11-01T13:41:06.817Z,1.40
2022-11-01T13:43:40.845Z,1.75
2022-11-01T13:46:32.288Z,1.85
2022-11-01T13:49:40.899Z,1.70
2022-11-01T13:52:16.423Z,1.67
2022-11-01T13:54:51.989Z,1.70
2022-11-01T13:57:22.437Z,1.75
2022-11-01T13:59:58.531Z,1.80
2022-11-01T14:02:57.953Z,1.63
2022-11-01T14:05:40.053Z,1.70
2022-11-01T14:08:27.130Z,1.73
2022-11-01T14:10:56.526Z,2.10
2022-11-01T14:13:37.235Z,1.77
2022-11-01T14:16:29.608Z,2.00
2022-11-01T14:19:22.970Z,1.92
2022-11-01T14:21:54.690Z,1.90
2022-11-01T14:24:34.974Z,1.92
2022-11-01T14:27:54.995Z,1.90
2022-11-01T14:30:25.340Z,1.73
2022-11-01T14:32:57.439Z,1.80
2022-11-01T14:35:33.497Z,1.70
2022-11-01T14:38:31.823Z,1.63
2022-11-01T14:41:01.642Z,2.00
2022-11-01T14:43:35.114Z,1.90
2022-11-01T14:46:13.299Z,1.73
2022-11-01T14:48:49.182Z,2.08
2022-11-01T14:51:23.106Z,1.85
2022-11-01T14:53:59.426Z,1.70
2022-11-01T14:56:38.265Z,1.70
2022-11-01T14:59:19.751Z,1.63
2022-11-01T15:01:50.547Z,2.22
2022-11-01T15:04:23.829Z,1.80
2022-11-01T15:06:52.744Z,1.85
2022-11-01T15:09:23.962Z,1.92
2022-11-01T15:11:54.890Z,1.83
2022-11-01T15:14:30.104Z,2.10
2022-11-01T15:16:58.367Z,2.15
2022-11-01T15:19:33.641Z,1.83
2022-11-01T15:22:03.537Z,2.05
2022-11-01T15:24:34.513Z,2.00
2022-11-01T15:27:07.373Z,1.92
2022-11-01T15:29:36.912Z,2.10
2022-11-01T15:32:05.512Z,2.13
2022-11-01T15:34:36.418Z,1.98
2022-11-01T15:37:12.418Z,1.98
2022-11-01T15:39:40.705Z,2.00
2022-11-01T15:42:15.937Z,2.03
2022-11-01T15:44:46.294Z,2.03
2022-11-01T15:47:18.240Z,2.03
2022-11-01T15:49:57.667Z,2.20
2022-11-01T15:52:29.616Z,2.10
2022-11-01T15:55:02.553Z,2.00
2022-11-01T15:57:34.544Z,2.25
2022-11-01T16:00:06.679Z,2.30
2022-11-01T16:02:45.889Z,3.28
2022-11-01T16:05:23.246Z,3.15
2022-11-01T16:07:51.894Z,2.30
2022-11-01T16:10:23.399Z,2.40
2022-11-01T16:12:53.200Z,2.20
2022-11-01T16:15:25.142Z,2.60
2022-11-01T16:17:55.919Z,2.70
2022-11-01T16:20:32.530Z,2.20
2022-11-01T16:23:01.750Z,2.67
2022-11-01T16:25:31.631Z,2.60
2022-11-01T16:28:02.972Z,2.90
2022-11-01T16:30:42.139Z,2.50
2022-11-01T16:33:17.867Z,3.10
2022-11-01T16:35:48.397Z,2.93
2022-11-01T16:38:25.158Z,2.90
2022-11-01T16:40:56.078Z,3.13
2022-11-01T16:43:24.716Z,3.30
2022-11-01T16:45:53.135Z,3.37
2022-11-01T16:48:24.243Z,3.50
2022-11-01T16:50:55.325Z,3.50
2022-11-01T16:53:25.532Z,3.77
2022-11-01T16:56:01.584Z,3.30
2022-11-01T16:58:34.066Z,4.03
2022-11-01T17:01:02.944Z,3.90
2022-11-01T17:03:32.089Z,4.47
2022-11-01T17:06:01.640Z,4.80
2022-11-01T17:08:30.923Z,4.33
2022-11-01T17:10:59.056Z,5.10
2022-11-01T17:13:27.257Z,4.83
2022-11-01T17:15:55.588Z,5.00
2022-11-01T17:18:29.103Z,5.10
2022-11-01T17:20:59.547Z,4.67
2022-11-01T17:23:30.349Z,4.80
2022-11-01T17:25:58.563Z,4.90
2022-11-01T17:28:26.752Z,4.87
2022-11-01T17:30:55.096Z,5.03
2022-11-01T17:33:23.295Z,4.90
2022-11-01T17:35:52.005Z,4.70
2022-11-01T17:38:27.751Z,5.17
2022-11-01T17:40:59.779Z,4.70
2022-11-01T17:43:28.103Z,4.90
2022-11-01T17:45:56.284Z,5.60
2022-11-01T17:48:24.956Z,5.40
2022-11-01T17:50:53.203Z,6.13
2022-11-01T17:53:21.608Z,6.33
2022-11-01T17:55:57.615Z,5.90
2022-11-01T17:58:27.408Z,6.17
2022-11-01T18:00:55.659Z,6.60
2022-11-01T18:03:24.023Z,6.67
2022-11-01T18:05:52.658Z,6.13
2022-11-01T18:08:26.073Z,6.50
2022-11-01T18:11:03.625Z,7.30
2022-11-01T18:14:03.815Z,6.97
2022-11-01T18:16:44.192Z,7.37
2022-11-01T18:19:40.228Z,7.37
2022-11-01T18:22:19.762Z,8.40
2022-11-01T18:24:51.582Z,9.20
2022-11-01T18:27:25.013Z,10.53
2022-11-01T18:29:54.626Z,10.23
2022-11-01T18:32:28.363Z,11.17
2022-11-01T18:34:59.668Z,10.23
2022-11-01T18:37:33.031Z,13.23
2022-11-01T18:40:08.743Z,15.50
2022-11-01T18:42:37.287Z,14.67
2022-11-01T18:45:18.676Z,15.63
2022-11-01T18:47:51.440Z,15.07
2022-11-01T18:50:26.064Z,16.83
2022-11-01T18:53:02.319Z,16.20
2022-11-01T18:55:32.996Z,14.90
2022-11-01T18:58:09.544Z,15.83
2022-11-01T19:00:39.700Z,16.57
2022-11-01T19:03:12.463Z,13.73
2022-11-01T19:05:40.918Z,14.50
2022-11-01T19:08:22.490Z,14.27
2022-11-01T19:10:51.203Z,14.07
2022-11-01T19:13:27.001Z,14.23
2022-11-01T19:15:58.309Z,13.93
2022-11-01T19:18:26.578Z,13.47
2022-11-01T19:20:56.058Z,10.90
2022-11-01T19:23:32.586Z,11.43
2022-11-01T19:26:00.834Z,11.40
2022-11-01T19:28:34.996Z,11.20
2022-11-01T19:31:14.982Z,11.43
2022-11-01T19:33:46.023Z,11.20
2022-11-01T19:36:19.040Z,12.20
2022-11-01T19:38:47.972Z,11.10
2022-11-01T19:41:19.570Z,11.53
2022-11-01T19:43:47.811Z,11.47
2022-11-01T19:46:20.628Z,11.10
2022-11-01T19:48:49.932Z,11.37
2022-11-01T19:51:21.200Z,11.90
2022-11-01T19:53:50.561Z,12.10
2022-11-01T19:56:22.284Z,12.10
2022-11-01T19:58:52.418Z,10.57
2022-11-01T20:01:47.026Z,10.10
2022-11-01T20:04:26.026Z,10.43
2022-11-01T20:06:59.717Z,9.73
2022-11-01T20:09:30.891Z,10.60
2022-11-01T20:11:59.383Z,11.50
2022-11-01T20:14:28.159Z,12.77
2022-11-01T20:16:58.175Z,12.17
2022-11-01T20:19:26.843Z,11.53
2022-11-01T20:21:55.881Z,14.20
2022-11-01T20:24:24.414Z,13.53
2022-11-01T20:26:53.053Z,13.70
2022-11-01T20:29:22.562Z,12.93
2022-11-01T20:31:51.576Z,13.90
2022-11-01T20:34:22.185Z,13.17
2022-11-01T20:37:14.841Z,12.60
2022-11-01T20:39:39.633Z,13.33
2022-11-01T20:42:08.185Z,13.10
2022-11-01T20:44:36.742Z,13.20
2022-11-01T20:47:05.938Z,13.03
2022-11-01T20:49:35.941Z,11.93
2022-11-01T20:52:26.293Z,12.73
2022-11-01T20:54:52.630Z,11.43
2022-11-01T20:57:28.044Z,11.50
2022-11-01T20:59:57.003Z,10.87
2022-11-01T21:02:25.429Z,12.63
2022-11-01T21:05:00.815Z,13.23
2022-11-01T21:07:30.589Z,14.27
2022-11-01T21:09:59.382Z,14.53
2022-11-01T21:12:42.040Z,14.70
2022-11-01T21:15:30.760Z,14.83
2022-11-01T21:18:26.094Z,14.67
2022-11-01T21:20:56.528Z,13.87
2022-11-01T21:23:28.267Z,14.37
2022-11-01T21:25:59.066Z,13.80
2022-11-01T21:28:31.179Z,14.77
2022-11-01T21:31:11.398Z,14.73
2022-11-01T21:33:41.573Z,14.57
2022-11-01T21:36:22.496Z,14.87
2022-11-01T21:38:51.984Z,15.00
2022-11-01T21:41:28.343Z,15.97
2022-11-01T21:43:57.775Z,17.37
2022-11-01T21:46:33.213Z,17.93
2022-11-01T21:49:01.812Z,16.53
2022-11-01T21:51:32.492Z,16.33
2022-11-01T21:54:03.529Z,16.53
2022-11-01T21:56:32.894Z,15.90
2022-11-01T21:59:01.098Z,16.40
2022-11-01T22:01:30.782Z,15.97
2022-11-01T22:03:59.051Z,16.57
2022-11-01T22:06:27.239Z,15.53
2022-11-01T22:08:56.812Z,15.13
2022-11-01T22:11:27.947Z,15.23
2022-11-01T22:13:59.828Z,15.23
2022-11-01T22:16:28.231Z,15.57
2022-11-01T22:18:56.404Z,15.40
2022-11-01T22:21:24.631Z,16.10
2022-11-01T22:23:52.928Z,14.83
2022-11-01T22:26:22.728Z,16.00
2022-11-01T22:28:50.900Z,15.87
2022-11-01T22:31:19.632Z,16.50
2022-11-01T22:33:51.134Z,16.37
2022-11-01T22:36:24.258Z,14.67
2022-11-01T22:38:56.707Z,15.13
2022-11-01T22:41:32.811Z,14.87
2022-11-01T22:44:04.917Z,14.00
2022-11-01T22:46:38.903Z,13.67
2022-11-01T22:49:13.330Z,12.87
2022-11-01T22:51:44.797Z,13.13
2022-11-01T22:54:30.096Z,12.63
2022-11-01T22:57:04.162Z,12.40
2022-11-01T22:59:35.749Z,12.67
2022-11-01T23:02:23.501Z,12.37
2022-11-01T23:04:57.743Z,12.63
2022-11-01T23:07:33.204Z,13.07
2022-11-01T23:10:06.156Z,13.00
2022-11-01T23:12:55.977Z,12.93
2022-11-01T23:15:28.052Z,13.47
2022-11-01T23:18:01.762Z,13.63
2022-11-01T23:20:30.874Z,12.97
2022-11-01T23:23:01.057Z,12.27
2022-11-01T23:25:30.222Z,12.00
2022-11-01T23:28:00.288Z,12.53
2022-11-01T23:30:28.537Z,12.23
2022-11-01T23:32:58.082Z,12.00
2022-11-01T23:35:26.203Z,12.00
2022-11-01T23:37:58.029Z,11.30
2022-11-01T23:40:32.370Z,10.30
2022-11-01T23:43:02.300Z,10.37
2022-11-01T23:45:33.933Z,10.63
2022-11-01T23:48:02.569Z,10.60
2022-11-01T23:50:33.594Z,10.40
2022-11-01T23:53:05.029Z,9.60
2022-11-01T23:55:35.915Z,9.70
2022-11-01T23:58:11.150Z,9.50
